Time;durP1;ratioP1;P1;durP2;ratioP2;P2;SDS_P1;SDS_P2;PMS_P1;PMS_P2;Temp;Humidity;BMP_temperature;BMP_pressure;BME280_temperature;BME280_humidity;BME280_pressure;Samples;Min_cycle;Max_cycle;Signal;HPM_P1;HPM_P2
2023/03/18 06:40:09;;;;;;;;;3.50;3.50;;;;;-142.59;100.00;56100.38;4930149;28;50624;-74
2023/03/18 06:42:35;;;;;;;;;3.00;3.00;;;;;-142.59;100.00;56100.38;4932356;28;49698;-79
2023/03/18 06:45:00;;;;;;;;;8.00;5.00;;;;;-142.59;100.00;56100.38;4931474;28;50308;-76
2023/03/18 06:47:26;;;;;;;;;3.75;3.25;;;;;-142.59;100.00;56100.38;4928280;28;50010;-70
2023/03/18 06:49:51;;;;;;;;;6.50;4.00;;;;;-142.59;100.00;56100.38;4938374;28;50242;-71
2023/03/18 06:52:17;;;;;;;;;6.50;5.00;;;;;-142.59;100.00;56100.38;4929931;28;49828;-71
2023/03/18 06:54:43;;;;;;;;;4.75;4.75;;;;;-142.59;100.00;56100.38;4931276;28;50321;-72
2023/03/18 06:57:09;;;;;;;;;3.75;3.75;;;;;-142.59;100.00;56100.38;4945429;28;49570;-69
2023/03/18 06:59:35;;;;;;;;;3.00;3.00;;;;;-142.59;100.00;56100.38;4926017;28;49709;-70
2023/03/18 07:02:01;;;;;;;;;2.00;2.00;;;;;-142.59;100.00;56100.38;4925157;28;49861;-69
2023/03/18 07:04:26;;;;;;;;;4.00;2.75;;;;;-142.59;100.00;56100.38;4931333;28;49932;-69
2023/03/18 07:06:52;;;;;;;;;3.75;3.75;;;;;-142.59;100.00;56100.38;4931315;28;49771;-70
2023/03/18 07:09:17;;;;;;;;;7.00;4.50;;;;;-142.59;100.00;56100.38;4932392;28;49797;-69
2023/03/18 07:11:45;;;;;;;;;4.00;4.00;;;;;-142.59;100.00;56100.38;4928023;28;49649;-70
2023/03/18 07:14:13;;;;;;;;;4.50;3.50;;;;;-142.59;100.00;56100.38;4931335;28;50697;-69
2023/03/18 07:16:39;;;;;;;;;4.50;4.50;;;;;-142.59;100.00;56100.38;4932690;28;49866;-69
2023/03/18 07:19:04;;;;;;;;;4.25;4.25;;;;;-142.59;100.00;56100.38;4929445;28;49899;-68
2023/03/18 07:21:29;;;;;;;;;4.75;2.75;;;;;-142.59;100.00;56100.38;4934764;28;49854;-68
2023/03/18 07:23:55;;;;;;;;;3.00;3.00;;;;;-142.59;100.00;56100.38;4928302;28;56482;-69
2023/03/18 07:26:20;;;;;;;;;3.00;3.00;;;;;-142.59;100.00;56100.38;4934389;28;49725;-69
2023/03/18 07:28:46;;;;;;;;;4.75;2.50;;;;;-142.59;100.00;56100.38;4932590;28;49997;-69
2023/03/18 07:31:11;;;;;;;;;2.50;2.50;;;;;-142.59;100.00;56100.38;4934440;28;49967;-67
2023/03/18 07:33:37;;;;;;;;;2.50;1.75;;;;;-142.59;100.00;56100.38;4931895;28;50731;-69
2023/03/18 07:36:02;;;;;;;;;3.00;2.75;;;;;-142.59;100.00;56100.38;4933560;28;49844;-67
2023/03/18 07:38:28;;;;;;;;;3.00;3.00;;;;;-142.59;100.00;56100.38;4933802;28;49670;-70
2023/03/18 07:40:53;;;;;;;;;2.25;2.25;;;;;-142.59;100.00;56100.38;4934577;28;49822;-69
2023/03/18 07:43:19;;;;;;;;;1.00;1.00;;;;;-142.59;100.00;56100.38;4928891;28;50821;-69
2023/03/18 07:45:44;;;;;;;;;2.00;1.50;;;;;-142.59;100.00;56100.38;4939956;28;49925;-70
2023/03/18 07:48:09;;;;;;;;;2.00;2.00;;;;;-142.59;100.00;56100.38;4934370;28;49789;-69
2023/03/18 07:50:35;;;;;;;;;1.00;1.00;;;;;-142.59;100.00;56100.38;4934357;28;54336;-67
2023/03/18 07:53:01;;;;;;;;;6.25;3.00;;;;;-142.59;100.00;56100.38;4933973;28;50495;-68
2023/03/18 07:55:26;;;;;;;;;1.50;1.50;;;;;-142.59;100.00;56100.38;4934454;28;49808;-64
2023/03/18 07:57:52;;;;;;;;;1.00;1.00;;;;;-142.59;100.00;56100.38;4934437;28;49664;-74
2023/03/18 08:00:18;;;;;;;;;2.00;2.00;;;;;-142.59;100.00;56100.38;4934445;28;49826;-81
2023/03/18 08:02:43;;;;;;;;;3.00;3.00;;;;;-142.59;100.00;56100.38;4933963;28;50593;-65
2023/03/18 08:05:10;;;;;;;;;1.50;1.50;;;;;-142.59;100.00;56100.38;4928584;28;49888;-65
2023/03/18 08:07:35;;;;;;;;;2.00;2.00;;;;;-142.59;100.00;56100.38;4933092;28;49947;-80
2023/03/18 08:10:01;;;;;;;;;2.50;1.00;;;;;-142.59;100.00;56100.38;4938704;28;49890;-70
2023/03/18 08:12:27;;;;;;;;;2.75;2.00;;;;;-142.59;100.00;56100.38;4933593;28;50478;-83
2023/03/18 08:14:53;;;;;;;;;4.00;2.00;;;;;-142.59;100.00;56100.38;4929006;28;50752;-77
2023/03/18 08:17:18;;;;;;;;;2.00;2.00;;;;;-142.59;100.00;56100.38;4928476;28;49735;-66
2023/03/18 08:19:43;;;;;;;;;1.75;1.75;;;;;-142.59;100.00;56100.38;4933067;28;49903;-65
2023/03/18 08:22:09;;;;;;;;;2.75;2.00;;;;;-142.59;100.00;56100.38;4930993;28;50566;-69
2023/03/18 08:24:39;;;;;;;;;1.75;1.75;;;;;-142.59;100.00;56100.38;4929018;28;49930;-75
2023/03/18 08:27:05;;;;;;;;;2.00;2.00;;;;;-142.59;100.00;56100.38;4933661;28;49796;-73
2023/03/18 08:29:31;;;;;;;;;3.00;2.00;;;;;-142.59;100.00;56100.38;4934189;28;50089;-70
2023/03/18 08:31:57;;;;;;;;;1.50;1.50;;;;;-142.59;100.00;56100.38;4932045;28;50501;-69
2023/03/18 08:34:22;;;;;;;;;2.25;2.25;;;;;-142.59;100.00;56100.38;4933675;28;49767;-70
2023/03/18 08:36:48;;;;;;;;;2.75;2.75;;;;;-142.59;100.00;56100.38;4941635;28;49912;-71
2023/03/18 08:39:14;;;;;;;;;2.25;2.25;;;;;-142.59;100.00;56100.38;4933632;28;49937;-66
2023/03/18 08:41:40;;;;;;;;;2.50;2.50;;;;;-142.59;100.00;56100.38;4942579;28;50690;-75
2023/03/18 08:44:07;;;;;;;;;3.00;3.00;;;;;-142.59;100.00;56100.38;4933121;28;49715;-69
2023/03/18 08:46:33;;;;;;;;;4.25;2.25;;;;;-142.59;100.00;56100.38;4933353;28;49609;-66
2023/03/18 08:48:58;;;;;;;;;2.50;2.50;;;;;-142.59;100.00;56100.38;4933379;28;49583;-66
2023/03/18 08:51:24;;;;;;;;;2.00;2.00;;;;;-142.59;100.00;56100.38;4932790;28;50578;-66
2023/03/18 08:53:49;;;;;;;;;4.00;4.00;;;;;-142.59;100.00;56100.38;4933375;28;49889;-70
2023/03/18 08:56:15;;;;;;;;;2.00;2.00;;;;;-142.59;100.00;56100.38;4933615;28;50176;-73
2023/03/18 08:58:43;;;;;;;;;1.75;1.75;;;;;-142.59;100.00;56100.38;4948393;28;50150;-67
2023/03/18 09:01:09;;;;;;;;;1.00;1.00;;;;;-142.59;100.00;56100.38;4932994;28;50683;-73
2023/03/18 09:03:35;;;;;;;;;3.00;1.25;;;;;-142.59;100.00;56100.38;4933128;28;49786;-73
2023/03/18 09:06:00;;;;;;;;;5.00;3.00;;;;;-142.59;100.00;56100.38;4933250;28;49850;-65
2023/03/18 09:08:28;;;;;;;;;3.00;3.00;;;;;-142.59;100.00;56100.38;4933023;28;49792;-65
2023/03/18 09:10:54;;;;;;;;;2.25;1.00;;;;;-142.59;100.00;56100.38;4932905;28;50666;-66
2023/03/18 09:13:21;;;;;;;;;2.00;2.00;;;;;-142.59;100.00;56100.38;4932937;28;49636;-69
2023/03/18 09:15:46;;;;;;;;;2.00;2.00;;;;;-142.59;100.00;56100.38;4933019;28;49676;-70
2023/03/18 09:18:15;;;;;;;;;2.75;2.00;;;;;-142.59;100.00;56100.38;4933204;28;49606;-73
2023/03/18 09:20:41;;;;;;;;;1.75;1.00;;;;;-142.59;100.00;56100.38;4933366;28;50886;-73
2023/03/18 09:23:07;;;;;;;;;2.25;2.25;;;;;-142.59;100.00;56100.38;4932559;28;50237;-70
2023/03/18 09:25:33;;;;;;;;;3.25;1.00;;;;;-142.59;100.00;56100.38;4933059;28;49872;-70
2023/03/18 09:27:59;;;;;;;;;1.75;0.50;;;;;-142.59;100.00;56100.38;4933037;28;49678;-71
2023/03/18 09:30:26;;;;;;;;;3.00;2.75;;;;;-142.59;100.00;56100.38;4932882;28;49922;-71
2023/03/18 09:32:52;;;;;;;;;1.50;1.50;;;;;-142.59;100.00;56100.38;4932652;28;49701;-77
2023/03/18 09:35:18;;;;;;;;;1.75;1.00;;;;;-142.59;100.00;56100.38;4932739;28;49762;-72
2023/03/18 09:37:43;;;;;;;;;1.75;1.00;;;;;-142.59;100.00;56100.38;4932255;28;49930;-73
2023/03/18 09:40:21;;;;;;;;;1.75;1.75;;;;;-142.59;100.00;56100.38;4932539;28;49840;-73
2023/03/18 09:43:17;;;;;;;;;3.00;3.00;;;;;-142.59;100.00;56100.38;4932649;28;49949;-70
2023/03/18 09:46:11;;;;;;;;;2.50;2.25;;;;;-142.59;100.00;56100.38;4932590;28;49755;-69
2023/03/18 09:48:50;;;;;;;;;3.75;1.50;;;;;-142.59;100.00;56100.38;4932802;28;50072;-69
2023/03/18 09:51:45;;;;;;;;;1.00;1.00;;;;;-142.59;100.00;56100.38;4931970;28;49829;-69
2023/03/18 09:54:38;;;;;;;;;2.00;2.00;;;;;-142.59;100.00;56100.38;4928896;28;49720;-69
2023/03/18 09:57:09;;;;;;;;;2.25;2.25;;;;;-142.59;100.00;56100.38;4928073;28;49791;-67
2023/03/18 09:59:44;;;;;;;;;0.25;0.25;;;;;-142.59;100.00;56100.38;4932564;28;49935;-66
2023/03/18 10:02:20;;;;;;;;;1.50;1.50;;;;;-142.59;100.00;56100.38;4932388;28;49788;-69
2023/03/18 10:04:52;;;;;;;;;0.25;0.25;;;;;-142.59;100.00;56100.38;4932330;28;49759;-68
2023/03/18 10:07:20;;;;;;;;;2.00;2.00;;;;;-142.59;100.00;56100.38;4931871;28;49752;-68
2023/03/18 10:09:52;;;;;;;;;1.00;0.75;;;;;-142.59;100.00;56100.38;4932272;28;49755;-68
2023/03/18 10:12:30;;;;;;;;;1.00;1.00;;;;;-142.59;100.00;56100.38;4932186;28;50297;-67
2023/03/18 10:15:03;;;;;;;;;1.25;1.00;;;;;-142.59;100.00;56100.38;4932078;28;49955;-68
2023/03/18 10:17:39;;;;;;;;;2.00;2.00;;;;;-142.59;100.00;56100.38;4946876;28;49964;-68
2023/03/18 10:20:15;;;;;;;;;3.00;2.25;;;;;-142.59;100.00;56100.38;4932377;28;49748;-69
2023/03/18 10:23:01;;;;;;;;;1.50;1.00;;;;;-142.59;100.00;56100.38;4925420;28;50725;-68
2023/03/18 10:25:50;;;;;;;;;1.25;1.25;;;;;-142.59;100.00;56100.38;4932105;28;49656;-68
2023/03/18 10:28:24;;;;;;;;;1.00;1.00;;;;;-142.59;100.00;56100.38;4931890;28;49767;-68
2023/03/18 10:31:06;;;;;;;;;1.75;1.25;;;;;-142.59;100.00;56100.38;4932325;28;50087;-75
2023/03/18 10:33:49;;;;;;;;;1.00;1.00;;;;;-142.59;100.00;56100.38;4931966;28;50859;-71
2023/03/18 10:36:18;;;;;;;;;2.75;1.50;;;;;-142.59;100.00;56100.38;4931509;28;49925;-71
2023/03/18 10:38:47;;;;;;;;;3.00;2.00;;;;;-142.59;100.00;56100.38;4931949;28;49944;-71
2023/03/18 10:41:31;;;;;;;;;1.00;1.00;;;;;-142.59;100.00;56100.38;4932050;28;49700;-70
2023/03/18 10:44:00;;;;;;;;;2.25;0.50;;;;;-142.59;100.00;56100.38;4932069;28;50273;-69
2023/03/18 10:46:26;;;;;;;;;1.25;0.50;;;;;-142.59;100.00;56100.38;4931672;28;49714;-67
2023/03/18 10:49:23;;;;;;;;;4.00;2.00;;;;;-142.59;100.00;56100.38;4928665;28;50326;-70
2023/03/18 10:52:04;;;;;;;;;0.75;0.00;;;;;-142.59;100.00;56100.38;4933551;28;49808;-66
2023/03/18 10:54:40;;;;;;;;;1.75;1.75;;;;;-142.59;100.00;56100.38;4935252;28;49710;-66
2023/03/18 10:57:20;;;;;;;;;1.00;1.00;;;;;-142.59;100.00;56100.38;4944239;28;49855;-66
2023/03/18 10:59:46;;;;;;;;;0.00;0.00;;;;;-142.59;100.00;56100.38;4933718;28;49798;-66
2023/03/18 11:02:34;;;;;;;;;2.00;2.00;;;;;-142.59;100.00;56100.38;4935194;28;49901;-67
2023/03/18 11:05:20;;;;;;;;;0.50;0.50;;;;;-142.59;100.00;56100.38;4934228;28;50395;-70
2023/03/18 11:08:04;;;;;;;;;2.50;1.00;;;;;-142.59;100.00;56100.38;4934207;28;49928;-73
2023/03/18 11:10:42;;;;;;;;;1.00;1.00;;;;;-142.59;100.00;56100.38;4935116;28;49919;-67
2023/03/18 11:13:15;;;;;;;;;2.50;1.25;;;;;-142.59;100.00;56100.38;4934954;28;49810;-66
2023/03/18 11:15:48;;;;;;;;;1.00;1.00;;;;;-142.59;100.00;56100.38;4934740;28;50058;-70
2023/03/18 11:18:18;;;;;;;;;1.00;1.00;;;;;-142.59;100.00;56100.38;4934863;28;49890;-73
2023/03/18 11:20:46;;;;;;;;;1.75;0.25;;;;;-142.59;100.00;56100.38;4934703;28;49684;-67
2023/03/18 11:23:54;;;;;;;;;0.50;0.50;;;;;-142.59;100.00;56100.38;4934698;28;50513;-67
2023/03/18 11:26:28;;;;;;;;;1.00;1.00;;;;;-142.59;100.00;56100.38;4932895;28;50499;-67
2023/03/18 11:28:57;;;;;;;;;0.00;0.00;;;;;-142.59;100.00;56100.38;4934326;28;49730;-69
2023/03/18 11:31:23;;;;;;;;;1.00;0.00;;;;;-142.59;100.00;56100.38;4934470;28;49631;-72
2023/03/18 11:33:49;;;;;;;;;1.00;1.00;;;;;-142.59;100.00;56100.38;4933383;28;49828;-74
2023/03/18 11:36:22;;;;;;;;;2.75;1.00;;;;;-142.59;100.00;56100.38;4933632;28;50854;-76
2023/03/18 11:39:05;;;;;;;;;1.00;1.00;;;;;-142.59;100.00;56100.38;4934105;28;49797;-79
2023/03/18 11:41:31;;;;;;;;;0.25;0.25;;;;;-142.59;100.00;56100.38;4934218;28;49885;-78
2023/03/18 11:43:58;;;;;;;;;1.25;1.00;;;;;-142.59;100.00;56100.38;4946861;28;50025;-71
2023/03/18 11:46:38;;;;;;;;;2.75;2.00;;;;;-142.59;100.00;56100.38;4968459;28;51548;-83
2023/03/18 11:49:03;;;;;;;;;1.75;1.75;;;;;-142.59;100.00;56100.38;4939897;28;49969;-83
2023/03/18 11:51:51;;;;;;;;;3.00;1.00;;;;;-142.59;100.00;56100.38;4933931;28;50002;-70
2023/03/18 11:54:49;;;;;;;;;1.00;1.00;;;;;-142.59;100.00;56100.38;4934287;28;49817;-71
2023/03/18 11:57:26;;;;;;;;;1.50;1.50;;;;;-142.59;100.00;56100.38;4933782;28;51259;-67
2023/03/18 12:00:16;;;;;;;;;2.00;0.75;;;;;-142.59;100.00;56100.38;4934162;28;49981;-67
2023/03/18 12:03:19;;;;;;;;;2.00;1.00;;;;;-142.59;100.00;56100.38;4933291;28;49773;-68
2023/03/18 12:06:00;;;;;;;;;0.00;0.00;;;;;-142.59;100.00;56100.38;4933160;28;49911;-74
2023/03/18 12:08:58;;;;;;;;;0.75;0.75;;;;;-142.59;100.00;56100.38;4933939;28;50658;-69
2023/03/18 12:11:47;;;;;;;;;1.50;1.50;;;;;-142.59;100.00;56100.38;4933281;28;49986;-70
2023/03/18 12:14:25;;;;;;;;;0.00;0.00;;;;;-142.59;100.00;56100.38;4933748;28;49618;-73
2023/03/18 12:17:13;;;;;;;;;1.00;1.00;;;;;-142.59;100.00;56100.38;4933643;28;49752;-69
2023/03/18 12:20:02;;;;;;;;;1.00;0.00;;;;;-142.59;100.00;56100.38;4933548;28;49922;-70
2023/03/18 12:22:56;;;;;;;;;1.00;1.00;;;;;-142.59;100.00;56100.38;4932828;28;49624;-72
2023/03/18 12:25:51;;;;;;;;;1.00;1.00;;;;;-142.59;100.00;56100.38;4933456;28;49765;-71
2023/03/18 12:28:42;;;;;;;;;0.00;0.00;;;;;-142.59;100.00;56100.38;4912304;28;50160;-72
2023/03/18 12:31:26;;;;;;;;;1.00;0.00;;;;;-142.59;100.00;56100.38;4931151;28;49855;-72
2023/03/18 12:33:57;;;;;;;;;0.00;0.00;;;;;-142.59;100.00;56100.38;4929428;28;51381;-73
2023/03/18 12:36:55;;;;;;;;;4.75;2.25;;;;;-142.59;100.00;56100.38;4931568;28;49825;-74
2023/03/18 12:40:11;;;;;;;;;1.00;1.00;;;;;-142.59;100.00;56100.38;4860566;28;50293;-68
2023/03/18 12:42:43;;;;;;;;;0.00;0.00;;;;;-142.59;100.00;56100.38;4929141;28;49875;-69
2023/03/18 12:45:18;;;;;;;;;0.00;0.00;;;;;-142.59;100.00;56100.38;4933358;28;49838;-73
2023/03/18 12:47:49;;;;;;;;;0.00;0.00;;;;;-142.59;100.00;56100.38;4940602;28;49918;-84
2023/03/18 12:50:25;;;;;;;;;0.25;0.00;;;;;-142.59;100.00;56100.38;4944495;28;49886;-68
2023/03/18 12:53:05;;;;;;;;;0.00;0.00;;;;;-142.59;100.00;56100.38;4950501;28;50014;-70
2023/03/18 12:55:45;;;;;;;;;0.00;0.00;;;;;-142.59;100.00;56100.38;4951616;28;49774;-67
2023/03/18 12:58:27;;;;;;;;;3.00;0.25;;;;;-142.59;100.00;56100.38;4951643;28;49815;-70
2023/03/18 13:01:16;;;;;;;;;0.75;0.25;;;;;-142.59;100.00;56100.38;4951898;28;49867;-68
2023/03/18 13:03:46;;;;;;;;;0.00;0.00;;;;;-142.59;100.00;56100.38;4951358;28;50524;-70
2023/03/18 13:06:17;;;;;;;;;0.00;0.00;;;;;-142.59;100.00;56100.38;4950884;28;49642;-68
2023/03/18 13:09:15;;;;;;;;;0.25;0.25;;;;;-142.59;100.00;56100.38;4951741;28;50086;-69
2023/03/18 13:12:08;;;;;;;;;2.50;1.50;;;;;-142.59;100.00;56100.38;4951517;28;49995;-66
2023/03/18 13:15:01;;;;;;;;;0.00;0.00;;;;;-142.59;100.00;56100.38;4948961;28;50322;-67
2023/03/18 13:17:41;;;;;;;;;1.00;1.00;;;;;-142.59;100.00;56100.38;4966251;28;50089;-69
2023/03/18 13:20:14;;;;;;;;;0.00;0.00;;;;;-142.59;100.00;56100.38;4949819;28;49956;-69
2023/03/18 13:22:44;;;;;;;;;0.00;0.00;;;;;-142.59;100.00;56100.38;4965647;28;49629;-68
2023/03/18 13:25:17;;;;;;;;;0.00;0.00;;;;;-142.59;100.00;56100.38;4950847;28;50937;-69
2023/03/18 13:27:58;;;;;;;;;0.00;0.00;;;;;-142.59;100.00;56100.38;4950871;28;51620;-70
2023/03/18 13:30:42;;;;;;;;;0.00;0.00;;;;;-142.59;100.00;56100.38;4936662;28;49726;-69
2023/03/18 13:33:28;;;;;;;;;1.00;0.00;;;;;-142.59;100.00;56100.38;4933704;28;49790;-69
2023/03/18 13:36:16;;;;;;;;;1.00;0.00;;;;;-142.59;100.00;56100.38;4927651;28;50019;-70
2023/03/18 13:38:47;;;;;;;;;0.25;0.25;;;;;-142.59;100.00;56100.38;4932454;28;49963;-70
2023/03/18 13:41:34;;;;;;;;;0.50;0.50;;;;;-142.59;100.00;56100.38;4932837;28;49831;-69
2023/03/18 13:44:10;;;;;;;;;0.00;0.00;;;;;-142.59;100.00;56100.38;4927522;28;49830;-70
2023/03/18 13:46:36;;;;;;;;;1.00;0.00;;;;;-142.59;100.00;56100.38;4932343;28;50539;-69
2023/03/18 13:49:02;;;;;;;;;0.00;0.00;;;;;-142.59;100.00;56100.38;4931783;28;49955;-69
2023/03/18 13:51:27;;;;;;;;;0.00;0.00;;;;;-142.59;100.00;56100.38;4930166;28;50011;-71
2023/03/18 13:53:57;;;;;;;;;0.00;0.00;;;;;-142.59;100.00;56100.38;4924567;28;50979;-71
2023/03/18 13:56:31;;;;;;;;;0.50;0.50;;;;;-142.59;100.00;56100.38;4931005;28;51025;-69
2023/03/18 13:59:03;;;;;;;;;0.00;0.00;;;;;-142.59;100.00;56100.38;4933799;28;49781;-74
2023/03/18 14:01:35;;;;;;;;;0.00;0.00;;;;;-142.59;100.00;56100.38;4931359;28;49850;-72
2023/03/18 14:04:37;;;;;;;;;1.75;1.75;;;;;-142.59;100.00;56100.38;4933982;28;49897;-73
2023/03/18 14:07:17;;;;;;;;;0.00;0.00;;;;;-142.59;100.00;56100.38;4931459;28;50433;-75
2023/03/18 14:09:59;;;;;;;;;3.00;0.00;;;;;-142.59;100.00;56100.38;4931482;28;49740;-79
2023/03/18 14:12:30;;;;;;;;;0.00;0.00;;;;;-142.59;100.00;56100.38;4949410;28;49261;-76
2023/03/18 14:15:11;;;;;;;;;0.00;0.00;;;;;-142.59;100.00;56100.38;4930415;28;49939;-71
2023/03/18 14:17:37;;;;;;;;;0.25;0.00;;;;;-142.59;100.00;56100.38;4931703;28;52128;-70
2023/03/18 14:20:09;;;;;;;;;1.00;1.00;;;;;-142.59;100.00;56100.38;4932163;28;49591;-72
2023/03/18 14:22:37;;;;;;;;;0.50;0.50;;;;;-142.59;100.00;56100.38;4931950;28;49824;-71
2023/03/18 14:25:17;;;;;;;;;1.00;0.00;;;;;-142.59;100.00;56100.38;4934226;28;49953;-70
2023/03/18 14:27:47;;;;;;;;;1.00;0.00;;;;;-142.59;100.00;56100.38;4934081;28;51888;-71
2023/03/18 14:30:31;;;;;;;;;0.50;0.50;;;;;-142.59;100.00;56100.38;4935566;28;49668;-68
2023/03/18 14:32:59;;;;;;;;;0.25;0.25;;;;;-142.59;100.00;56100.38;4935569;28;49782;-68
2023/03/18 14:35:28;;;;;;;;;0.00;0.00;;;;;-142.59;100.00;56100.38;4935647;28;49784;-69
2023/03/18 14:38:08;;;;;;;;;1.00;1.00;;;;;-142.59;100.00;56100.38;4934921;28;49705;-74
2023/03/18 14:40:48;;;;;;;;;0.00;0.00;;;;;-142.59;100.00;56100.38;4935125;28;49699;-71
2023/03/18 14:43:25;;;;;;;;;1.75;0.50;;;;;-142.59;100.00;56100.38;4933845;28;50081;-72
2023/03/18 14:45:55;;;;;;;;;0.00;0.00;;;;;-142.59;100.00;56100.38;4937463;28;49811;-71
2023/03/18 14:48:28;;;;;;;;;0.00;0.00;;;;;-142.59;100.00;56100.38;4953515;28;50893;-74
2023/03/18 14:50:58;;;;;;;;;0.00;0.00;;;;;-142.59;100.00;56100.38;4951947;28;49827;-74
2023/03/18 14:53:33;;;;;;;;;1.00;0.00;;;;;-142.59;100.00;56100.38;4953696;28;50037;-76
2023/03/18 14:56:00;;;;;;;;;1.00;1.00;;;;;-142.59;100.00;56100.38;4953900;28;50125;-74
2023/03/18 14:58:26;;;;;;;;;1.00;1.00;;;;;-142.59;100.00;56100.38;4952134;28;52546;-68
2023/03/18 15:01:05;;;;;;;;;1.25;0.75;;;;;-142.59;100.00;56100.38;4953386;28;49950;-73
2023/03/18 15:03:31;;;;;;;;;0.25;0.25;;;;;-142.59;100.00;56100.38;4953670;28;49776;-70
2023/03/18 15:06:02;;;;;;;;;2.00;1.00;;;;;-142.59;100.00;56100.38;4953297;28;49981;-74
2023/03/18 15:08:30;;;;;;;;;0.00;0.00;;;;;-142.59;100.00;56100.38;4952029;28;51933;-71
2023/03/18 15:10:57;;;;;;;;;1.25;1.25;;;;;-142.59;100.00;56100.38;4951779;28;49790;-70
2023/03/18 15:13:27;;;;;;;;;3.50;2.00;;;;;-142.59;100.00;56100.38;4967797;28;49849;-70
2023/03/18 15:15:55;;;;;;;;;1.00;1.00;;;;;-142.59;100.00;56100.38;4953669;28;49851;-68
2023/03/18 15:18:31;;;;;;;;;1.00;1.00;;;;;-142.59;100.00;56100.38;4952973;28;49994;-75
2023/03/18 15:21:09;;;;;;;;;0.50;0.50;;;;;-142.59;100.00;56100.38;4952804;28;49893;-65
2023/03/18 15:23:41;;;;;;;;;1.00;1.00;;;;;-142.59;100.00;56100.38;4929894;28;49869;-65
2023/03/18 15:26:17;;;;;;;;;0.50;0.50;;;;;-142.59;100.00;56100.38;4934887;28;49815;-74
2023/03/18 15:28:45;;;;;;;;;2.00;1.00;;;;;-142.59;100.00;56100.38;4934552;28;50124;-72
2023/03/18 15:31:11;;;;;;;;;1.00;1.00;;;;;-142.59;100.00;56100.38;4934490;28;49696;-65
2023/03/18 15:33:37;;;;;;;;;1.00;1.00;;;;;-142.59;100.00;56100.38;4934665;28;49843;-75
2023/03/18 15:36:13;;;;;;;;;0.50;0.50;;;;;-142.59;100.00;56100.38;4934195;28;49923;-75
2023/03/18 15:38:47;;;;;;;;;2.50;0.00;;;;;-142.59;100.00;56100.38;4931000;28;49951;-71
2023/03/18 15:41:12;;;;;;;;;1.00;1.00;;;;;-142.59;100.00;56100.38;4930747;28;50097;-79
2023/03/18 15:43:46;;;;;;;;;2.00;2.00;;;;;-142.59;100.00;56100.38;4944973;28;49947;-74
2023/03/18 15:46:26;;;;;;;;;0.75;0.75;;;;;-142.59;100.00;56100.38;4951603;28;49977;-69
2023/03/18 15:48:54;;;;;;;;;1.00;1.00;;;;;-142.59;100.00;56100.38;4940167;28;50971;-77
2023/03/18 15:51:48;;;;;;;;;1.00;0.25;;;;;-142.59;100.00;56100.38;4951538;28;49779;-67
2023/03/18 15:54:26;;;;;;;;;1.50;1.50;;;;;-142.59;100.00;56100.38;4926621;28;50113;-67
2023/03/18 15:56:56;;;;;;;;;1.00;1.00;;;;;-142.59;100.00;56100.38;4936516;28;50010;-67
2023/03/18 15:59:29;;;;;;;;;1.25;1.25;;;;;-142.59;100.00;56100.38;4951147;28;50954;-74
2023/03/18 16:01:56;;;;;;;;;2.75;1.50;;;;;-142.59;100.00;56100.38;4953041;28;49861;-69
2023/03/18 16:04:23;;;;;;;;;0.00;0.00;;;;;-142.59;100.00;56100.38;4952621;28;49857;-68
2023/03/18 16:06:48;;;;;;;;;1.50;0.25;;;;;-142.59;100.00;56100.38;4951900;28;49703;-67
2023/03/18 16:09:17;;;;;;;;;1.50;1.00;;;;;-142.59;100.00;56100.38;4948858;28;49955;-65
2023/03/18 16:11:49;;;;;;;;;1.00;1.00;;;;;-142.59;100.00;56100.38;4941297;28;49994;-73
2023/03/18 16:14:20;;;;;;;;;4.00;2.00;;;;;-142.59;100.00;56100.38;4951992;28;49463;-73
2023/03/18 16:16:46;;;;;;;;;2.00;0.75;;;;;-142.59;100.00;56100.38;4953983;28;49679;-69
2023/03/18 16:19:26;;;;;;;;;3.00;2.00;;;;;-142.59;100.00;56100.38;4938775;28;50840;-73
2023/03/18 16:21:53;;;;;;;;;2.75;2.75;;;;;-142.59;100.00;56100.38;4947265;28;49322;-73
2023/03/18 16:24:22;;;;;;;;;1.00;1.00;;;;;-142.59;100.00;56100.38;4950906;28;49269;-73
2023/03/18 16:26:48;;;;;;;;;3.00;3.00;;;;;-142.59;100.00;56100.38;4967527;28;49716;-69
2023/03/18 16:29:16;;;;;;;;;2.00;2.00;;;;;-142.59;100.00;56100.38;4951006;28;49773;-70
2023/03/18 16:31:43;;;;;;;;;3.00;3.00;;;;;-142.59;100.00;56100.38;4957054;28;49267;-68
2023/03/18 16:34:14;;;;;;;;;3.25;1.50;;;;;-142.59;100.00;56100.38;4942286;28;49393;-69
2023/03/18 16:36:39;;;;;;;;;1.75;1.75;;;;;-142.59;100.00;56100.38;4955315;28;49496;-71
2023/03/18 16:39:14;;;;;;;;;1.25;1.00;;;;;-142.59;100.00;56100.38;4949400;28;50308;-68
2023/03/18 16:41:40;;;;;;;;;1.25;1.25;;;;;-142.59;100.00;56100.38;4948201;28;49709;-73
2023/03/18 16:44:16;;;;;;;;;2.00;2.00;;;;;-142.59;100.00;56100.38;4946629;28;49784;-75
2023/03/18 16:46:45;;;;;;;;;2.25;2.00;;;;;-142.59;100.00;56100.38;4946011;28;49989;-67
2023/03/18 16:49:32;;;;;;;;;2.00;2.00;;;;;-142.59;100.00;56100.38;4932836;28;51041;-75
2023/03/18 16:51:58;;;;;;;;;1.00;1.00;;;;;-142.59;100.00;56100.38;4935319;28;49873;-68
2023/03/18 16:54:26;;;;;;;;;1.25;1.25;;;;;-142.59;100.00;56100.38;4934879;28;49860;-71
2023/03/18 16:56:54;;;;;;;;;1.00;1.00;;;;;-142.59;100.00;56100.38;4950171;28;49839;-68
2023/03/18 16:59:21;;;;;;;;;2.00;2.00;;;;;-142.59;100.00;56100.38;4941764;28;51081;-72
2023/03/18 17:01:47;;;;;;;;;0.00;0.00;;;;;-142.59;100.00;56100.38;4933242;28;49688;-68
2023/03/18 17:04:27;;;;;;;;;2.00;2.00;;;;;-142.59;100.00;56100.38;4933323;28;49649;-71
2023/03/18 17:06:53;;;;;;;;;1.25;1.00;;;;;-142.59;100.00;56100.38;4931995;28;49638;-67
2023/03/18 17:09:19;;;;;;;;;1.00;1.00;;;;;-142.59;100.00;56100.38;4930230;28;49840;-66
2023/03/18 17:11:47;;;;;;;;;1.00;1.00;;;;;-142.59;100.00;56100.38;4931264;28;49874;-69
2023/03/18 17:14:38;;;;;;;;;1.00;1.00;;;;;-142.59;100.00;56100.38;4935800;28;49850;-71
2023/03/18 17:17:10;;;;;;;;;4.75;1.00;;;;;-142.59;100.00;56100.38;4926761;28;49642;-71
2023/03/18 17:19:35;;;;;;;;;1.00;1.00;;;;;-142.59;100.00;56100.38;4946253;28;50845;-72
2023/03/18 17:22:05;;;;;;;;;2.50;1.50;;;;;-142.59;100.00;56100.38;4960181;28;51133;-68
2023/03/18 17:24:30;;;;;;;;;0.00;0.00;;;;;-142.59;100.00;56100.38;4932352;28;49885;-64
2023/03/18 17:26:56;;;;;;;;;1.75;1.75;;;;;-142.59;100.00;56100.38;4932622;28;49816;-69
2023/03/18 17:29:28;;;;;;;;;1.00;1.00;;;;;-142.59;100.00;56100.38;4932620;28;49873;-72
2023/03/18 17:31:54;;;;;;;;;0.00;0.00;;;;;-142.59;100.00;56100.38;4932719;28;49676;-65
2023/03/18 17:34:21;;;;;;;;;0.00;0.00;;;;;-142.59;100.00;56100.38;4932788;28;49835;-66
2023/03/18 17:36:47;;;;;;;;;0.00;0.00;;;;;-142.59;100.00;56100.38;4935729;28;49947;-65
2023/03/18 17:39:14;;;;;;;;;1.25;1.25;;;;;-142.59;100.00;56100.38;4936983;28;50923;-70
2023/03/18 17:41:40;;;;;;;;;0.00;0.00;;;;;-142.59;100.00;56100.38;4925278;28;49955;-71
2023/03/18 17:44:23;;;;;;;;;1.00;1.00;;;;;-142.59;100.00;56100.38;4932526;28;49775;-71
2023/03/18 17:46:49;;;;;;;;;0.00;0.00;;;;;-142.59;100.00;56100.38;4934389;28;49946;-64
2023/03/18 17:49:19;;;;;;;;;0.00;0.00;;;;;-142.59;100.00;56100.38;4955696;28;50889;-81
2023/03/18 17:51:47;;;;;;;;;0.00;0.00;;;;;-142.59;100.00;56100.38;4967940;28;50002;-65
2023/03/18 17:54:20;;;;;;;;;0.00;0.00;;;;;-142.59;100.00;56100.38;4951259;28;49689;-66
2023/03/18 17:56:45;;;;;;;;;2.00;0.00;;;;;-142.59;100.00;56100.38;4938699;28;50054;-66
2023/03/18 17:59:16;;;;;;;;;0.25;0.25;;;;;-142.59;100.00;56100.38;4933559;28;49701;-66
2023/03/18 18:01:45;;;;;;;;;1.00;1.00;;;;;-142.59;100.00;56100.38;4934826;28;49873;-69
2023/03/18 18:04:16;;;;;;;;;2.00;0.50;;;;;-142.59;100.00;56100.38;4950782;28;49821;-67
2023/03/18 18:06:42;;;;;;;;;0.75;0.75;;;;;-142.59;100.00;56100.38;4950759;28;49885;-66
2023/03/18 18:09:12;;;;;;;;;1.00;1.00;;;;;-142.59;100.00;56100.38;4961792;28;50680;-67
2023/03/18 18:11:43;;;;;;;;;1.50;1.00;;;;;-142.59;100.00;56100.38;4944404;28;49640;-78
2023/03/18 18:14:15;;;;;;;;;0.00;0.00;;;;;-142.59;100.00;56100.38;4949425;28;49555;-67